createdAt,value
2017-07-04T00:00:08.870Z,89.42
2017-07-04T00:02:41.282Z,89.76
2017-07-04T00:05:14.627Z,89.59
2017-07-04T00:07:47.012Z,89.54
2017-07-04T00:10:19.365Z,89.83
2017-07-04T00:12:51.754Z,89.80
2017-07-04T00:15:25.144Z,89.66
2017-07-04T00:17:57.636Z,89.89
2017-07-04T00:20:29.888Z,90.43
2017-07-04T00:23:02.238Z,90.27
2017-07-04T00:25:34.692Z,90.14
2017-07-04T00:28:08.084Z,90.46
2017-07-04T00:30:40.485Z,90.18
2017-07-04T00:33:12.975Z,90.21
2017-07-04T00:35:45.815Z,89.55
2017-07-04T00:38:17.887Z,89.54
2017-07-04T00:40:50.197Z,89.26
2017-07-04T00:43:22.566Z,89.22
2017-07-04T00:45:54.925Z,89.11
2017-07-04T00:48:27.403Z,89.35
2017-07-04T00:50:59.771Z,89.26
2017-07-04T00:53:32.560Z,89.42
2017-07-04T00:56:04.690Z,89.14
2017-07-04T00:58:37.064Z,89.25
2017-07-04T01:01:09.680Z,89.82
2017-07-04T01:03:41.696Z,90.38
2017-07-04T01:06:14.108Z,90.22
2017-07-04T01:08:46.371Z,90.10
2017-07-04T01:11:18.754Z,90.69
2017-07-04T01:13:51.065Z,90.63
2017-07-04T01:16:23.416Z,90.44
2017-07-04T01:18:55.793Z,90.52
2017-07-04T01:21:28.125Z,90.90
2017-07-04T01:24:00.507Z,91.50
2017-07-04T01:26:32.825Z,91.49
2017-07-04T01:29:05.159Z,91.30
2017-07-04T01:31:37.533Z,91.33
2017-07-04T01:34:09.938Z,91.37
2017-07-04T01:36:42.285Z,91.90
2017-07-04T01:39:14.667Z,92.04
2017-07-04T01:41:47.069Z,92.20
2017-07-04T01:44:19.647Z,92.66
2017-07-04T01:46:53.046Z,93.67
2017-07-04T01:49:25.697Z,93.59
2017-07-04T01:51:57.964Z,93.38
2017-07-04T01:54:30.675Z,93.39
2017-07-04T01:57:03.007Z,93.29
2017-07-04T01:59:35.330Z,93.37
2017-07-04T02:02:07.659Z,93.08
2017-07-04T02:04:39.971Z,92.99
2017-07-04T02:07:13.291Z,92.84
2017-07-04T02:09:46.291Z,93.21
2017-07-04T02:12:19.052Z,93.41
2017-07-04T02:14:51.540Z,93.28
2017-07-04T02:17:23.966Z,93.19
2017-07-04T02:19:56.337Z,93.53
2017-07-04T02:22:28.911Z,93.77
2017-07-04T02:25:01.292Z,93.66
2017-07-04T02:27:34.414Z,93.65
2017-07-04T02:30:07.008Z,93.59
2017-07-04T02:32:39.321Z,93.71
2017-07-04T02:35:12.520Z,93.87
2017-07-04T02:37:45.092Z,93.47
2017-07-04T02:40:17.501Z,93.40
2017-07-04T02:42:49.764Z,93.36
2017-07-04T02:45:22.048Z,93.51
2017-07-04T02:47:54.392Z,93.77
2017-07-04T02:50:26.666Z,93.87
2017-07-04T02:52:58.998Z,93.86
2017-07-04T02:55:32.347Z,93.79
2017-07-04T02:58:04.683Z,93.74
2017-07-04T03:00:37.073Z,93.61
2017-07-04T03:03:09.492Z,93.58
2017-07-04T03:05:41.828Z,93.47
2017-07-04T03:08:14.159Z,93.51
2017-07-04T03:10:47.475Z,93.70
2017-07-04T03:13:20.216Z,93.81
2017-07-04T03:15:52.617Z,93.89
2017-07-04T03:18:24.936Z,93.96
2017-07-04T03:20:57.397Z,93.83
2017-07-04T03:23:29.682Z,93.81
2017-07-04T03:26:02.223Z,93.98
2017-07-04T03:28:35.172Z,94.09
2017-07-04T03:31:07.911Z,94.04
2017-07-04T03:33:40.683Z,94.23
2017-07-04T03:36:12.778Z,94.10
2017-07-04T03:38:46.117Z,94.14
2017-07-04T03:41:19.588Z,94.46
2017-07-04T03:43:51.859Z,94.24
2017-07-04T03:46:24.225Z,94.31
2017-07-04T03:48:56.701Z,94.12
2017-07-04T03:51:29.071Z,93.84
2017-07-04T03:54:01.445Z,93.72
2017-07-04T03:56:33.853Z,93.64
2017-07-04T03:59:06.193Z,93.50
2017-07-04T04:01:38.647Z,93.34
2017-07-04T04:04:11.002Z,93.36
2017-07-04T04:06:43.304Z,93.20
2017-07-04T04:09:15.623Z,92.71
2017-07-04T04:11:47.976Z,92.25
2017-07-04T04:14:20.288Z,92.90
2017-07-04T04:16:52.629Z,91.77
2017-07-04T04:19:25.020Z,91.42
2017-07-04T04:21:57.432Z,90.94
2017-07-04T04:24:29.918Z,91.03
2017-07-04T04:27:02.372Z,90.61
2017-07-04T04:29:34.757Z,90.76
2017-07-04T04:32:07.179Z,90.50
2017-07-04T04:34:39.495Z,90.21
2017-07-04T04:37:13.071Z,90.69
2017-07-04T04:39:45.480Z,90.56
2017-07-04T04:42:17.852Z,90.31
2017-07-04T04:44:50.283Z,90.05
2017-07-04T04:47:22.727Z,90.21
2017-07-04T04:49:55.067Z,89.37
2017-07-04T04:52:27.444Z,88.48
2017-07-04T04:54:59.720Z,88.67
2017-07-04T04:57:33.091Z,88.32
2017-07-04T05:00:05.488Z,86.92
2017-07-04T05:02:38.874Z,86.51
2017-07-04T05:05:11.563Z,85.96
2017-07-04T05:07:43.649Z,85.17
2017-07-04T05:10:16.059Z,84.33
2017-07-04T05:12:48.381Z,83.44
2017-07-04T05:15:20.775Z,82.68
2017-07-04T05:17:53.165Z,83.05
2017-07-04T05:20:25.471Z,81.71
2017-07-04T05:22:57.890Z,81.29
2017-07-04T05:25:30.238Z,81.16
2017-07-04T05:28:02.627Z,78.90
2017-07-04T05:30:34.975Z,79.82
2017-07-04T05:33:07.470Z,78.82
2017-07-04T05:35:39.958Z,78.85
2017-07-04T05:38:13.367Z,79.42
2017-07-04T05:40:46.165Z,78.20
2017-07-04T05:43:18.289Z,73.89
2017-07-04T05:45:51.391Z,72.65
2017-07-04T05:48:24.057Z,69.10
2017-07-04T05:50:56.412Z,67.13
2017-07-04T05:53:28.731Z,65.01
2017-07-04T05:56:01.137Z,63.75
2017-07-04T05:58:33.415Z,61.76
2017-07-04T06:01:05.904Z,63.20
2017-07-04T06:03:38.362Z,64.37
2017-07-04T06:06:11.373Z,64.79
2017-07-04T06:08:44.155Z,63.67
2017-07-04T06:11:16.666Z,62.90
2017-07-04T06:13:49.004Z,62.85
2017-07-04T06:16:21.451Z,63.02
2017-07-04T06:18:54.548Z,61.94
2017-07-04T06:21:27.147Z,62.29
2017-07-04T06:23:59.652Z,61.89
2017-07-04T06:26:32.169Z,59.48
2017-07-04T06:29:04.644Z,55.46
2017-07-04T06:31:36.984Z,51.46
2017-07-04T06:34:09.872Z,49.30
2017-07-04T06:36:41.918Z,47.32
2017-07-04T06:39:14.253Z,45.10
2017-07-04T06:41:47.064Z,44.21
2017-07-04T06:44:19.152Z,44.88
2017-07-04T06:46:51.390Z,44.20
2017-07-04T06:49:23.825Z,44.52
2017-07-04T06:51:56.261Z,43.46
2017-07-04T06:54:28.753Z,41.50
2017-07-04T06:57:01.859Z,43.52
2017-07-04T06:59:34.432Z,41.81
2017-07-04T07:02:06.772Z,40.80
2017-07-04T07:04:39.094Z,38.86
2017-07-04T07:07:11.429Z,38.79
2017-07-04T07:09:44.820Z,35.55
2017-07-04T07:12:17.296Z,36.67
2017-07-04T07:14:50.726Z,37.05
2017-07-04T07:17:23.236Z,36.43
2017-07-04T07:19:55.813Z,34.29
2017-07-04T07:22:27.820Z,33.58
2017-07-04T07:25:00.210Z,34.48
2017-07-04T07:27:32.679Z,35.78
2017-07-04T07:30:05.160Z,34.63
2017-07-04T07:32:37.516Z,36.56
2017-07-04T07:35:09.920Z,38.96
2017-07-04T07:37:42.264Z,36.00
2017-07-04T07:40:14.686Z,33.69
2017-07-04T07:42:47.104Z,33.33
2017-07-04T07:45:20.557Z,32.49
2017-07-04T07:47:53.946Z,32.56
2017-07-04T07:50:26.504Z,31.34
2017-07-04T07:52:59.077Z,29.52
2017-07-04T07:55:31.344Z,29.33
2017-07-04T07:58:03.764Z,29.48
2017-07-04T08:00:36.256Z,29.24
2017-07-04T08:03:08.673Z,29.28
2017-07-04T08:05:41.128Z,30.60
2017-07-04T08:08:13.513Z,30.76
2017-07-04T08:10:46.017Z,30.41
2017-07-04T08:13:18.293Z,29.90
2017-07-04T08:15:50.673Z,30.33
2017-07-04T08:18:23.047Z,30.73
2017-07-04T08:20:55.786Z,31.31
2017-07-04T08:23:28.046Z,29.61
2017-07-04T08:26:00.451Z,29.16
2017-07-04T08:28:32.816Z,29.01
2017-07-04T08:31:05.394Z,30.04
2017-07-04T08:33:37.456Z,29.73
2017-07-04T08:36:11.476Z,30.15
2017-07-04T08:38:43.259Z,28.57
2017-07-04T08:41:16.009Z,27.10
2017-07-04T08:43:47.912Z,28.88
2017-07-04T08:46:20.596Z,28.32
2017-07-04T08:48:52.795Z,28.32
2017-07-04T08:51:25.213Z,27.06
2017-07-04T08:53:57.561Z,26.70
2017-07-04T08:56:30.809Z,26.67
2017-07-04T08:59:03.175Z,26.84
2017-07-04T09:01:35.561Z,25.70
2017-07-04T09:04:07.906Z,25.46
2017-07-04T09:06:40.489Z,25.60
2017-07-04T09:09:12.953Z,25.75
2017-07-04T09:11:45.377Z,26.22
2017-07-04T09:14:17.773Z,26.50
2017-07-04T09:16:50.192Z,25.71
2017-07-04T09:19:22.548Z,25.31
2017-07-04T09:21:55.125Z,25.08
2017-07-04T09:24:27.477Z,23.93
2017-07-04T09:26:59.812Z,25.02
2017-07-04T09:29:32.208Z,25.33
2017-07-04T09:32:04.609Z,25.10
2017-07-04T09:34:36.968Z,25.19
2017-07-04T09:37:09.650Z,25.73
2017-07-04T09:39:41.795Z,27.45
2017-07-04T09:42:14.325Z,29.23
2017-07-04T09:44:46.666Z,29.17
2017-07-04T09:47:19.987Z,28.06
2017-07-04T09:49:52.546Z,28.24
2017-07-04T09:52:24.937Z,27.10
2017-07-04T09:54:57.519Z,25.78
2017-07-04T09:57:30.500Z,26.32
2017-07-04T10:00:03.177Z,25.71
2017-07-04T10:02:35.522Z,24.60
2017-07-04T10:05:07.959Z,24.82
2017-07-04T10:07:40.461Z,26.57
2017-07-04T10:10:12.893Z,27.98
2017-07-04T10:12:45.416Z,28.18
2017-07-04T10:15:17.814Z,27.66
2017-07-04T10:17:50.431Z,28.80
2017-07-04T10:20:23.174Z,29.47
2017-07-04T10:22:55.359Z,27.62
2017-07-04T10:25:27.829Z,29.82
2017-07-04T10:28:00.225Z,29.99
2017-07-04T10:30:32.472Z,31.22
2017-07-04T10:33:04.919Z,32.23
2017-07-04T10:35:37.321Z,30.82
2017-07-04T10:38:10.099Z,30.49
2017-07-04T10:40:42.188Z,29.01
2017-07-04T10:43:14.765Z,30.86
2017-07-04T10:45:47.325Z,30.18
2017-07-04T10:48:19.733Z,32.58
2017-07-04T10:50:52.069Z,32.77
2017-07-04T10:53:24.744Z,31.80
2017-07-04T10:55:56.917Z,32.31
2017-07-04T10:58:29.368Z,33.37
2017-07-04T11:01:02.605Z,31.83
2017-07-04T11:03:35.090Z,31.71
2017-07-04T11:06:07.407Z,32.03
2017-07-04T11:08:40.101Z,29.25
2017-07-04T11:11:12.261Z,30.34
2017-07-04T11:13:44.599Z,29.06
2017-07-04T11:16:17.016Z,28.71
2017-07-04T11:18:49.345Z,29.13
2017-07-04T11:21:21.777Z,29.77
2017-07-04T11:23:54.284Z,29.28
2017-07-04T11:26:26.636Z,30.09
2017-07-04T11:28:59.220Z,30.01
2017-07-04T11:31:31.421Z,28.49
2017-07-04T11:34:04.466Z,27.91
2017-07-04T11:36:36.274Z,26.18
2017-07-04T11:39:08.892Z,27.44
2017-07-04T11:41:40.888Z,26.23
2017-07-04T11:44:13.382Z,26.53
2017-07-04T11:46:45.821Z,24.98
2017-07-04T11:49:18.242Z,26.32
2017-07-04T11:51:50.592Z,26.01
2017-07-04T11:54:22.897Z,27.93
2017-07-04T11:56:55.145Z,28.20
2017-07-04T11:59:27.537Z,27.23
2017-07-04T12:01:59.766Z,28.06
2017-07-04T12:04:32.225Z,28.27
2017-07-04T12:07:04.590Z,29.28
2017-07-04T12:09:36.961Z,31.23
2017-07-04T12:12:09.310Z,30.08
2017-07-04T12:14:41.703Z,27.57
2017-07-04T12:17:14.097Z,27.78
2017-07-04T12:19:46.432Z,27.30
2017-07-04T12:22:18.773Z,29.34
2017-07-04T12:24:51.233Z,28.51
2017-07-04T12:27:24.436Z,29.21
2017-07-04T12:29:57.160Z,27.99
2017-07-04T12:32:29.501Z,28.69
2017-07-04T12:35:02.009Z,26.49
2017-07-04T12:37:34.354Z,25.83
2017-07-04T12:40:07.101Z,27.22
2017-07-04T12:42:39.168Z,26.17
2017-07-04T12:45:11.564Z,25.31
2017-07-04T12:47:44.082Z,27.17
2017-07-04T12:50:16.407Z,26.07
2017-07-04T12:52:48.632Z,27.42
2017-07-04T12:55:21.156Z,28.46
2017-07-04T12:57:53.528Z,28.33
2017-07-04T13:00:26.005Z,27.11
2017-07-04T13:02:58.297Z,28.26
2017-07-04T13:05:30.749Z,25.83
2017-07-04T13:08:03.117Z,26.65
2017-07-04T13:10:35.708Z,26.95
2017-07-04T13:13:07.923Z,27.16
2017-07-04T13:15:40.330Z,27.59
2017-07-04T13:18:13.002Z,27.71
2017-07-04T13:20:45.204Z,28.29
2017-07-04T13:23:17.523Z,29.34
2017-07-04T13:25:49.969Z,30.74
2017-07-04T13:28:22.385Z,29.90
2017-07-04T13:30:55.199Z,30.89
2017-07-04T13:33:27.136Z,29.44
2017-07-04T13:35:59.561Z,29.39
2017-07-04T13:38:31.916Z,29.36
2017-07-04T13:41:04.443Z,29.59
2017-07-04T13:43:36.748Z,28.71
2017-07-04T13:46:09.139Z,30.34
2017-07-04T13:48:41.502Z,30.72
2017-07-04T13:51:14.933Z,30.90
2017-07-04T13:53:47.254Z,31.91
2017-07-04T13:56:20.093Z,29.30
2017-07-04T13:58:52.182Z,30.39
2017-07-04T14:01:24.612Z,31.13
2017-07-04T14:03:57.069Z,31.09
2017-07-04T14:06:29.560Z,29.81
2017-07-04T14:09:01.857Z,31.08
2017-07-04T14:11:34.237Z,31.12
2017-07-04T14:14:06.681Z,31.04
2017-07-04T14:16:39.126Z,32.63
2017-07-04T14:19:12.446Z,32.51
2017-07-04T14:21:44.945Z,32.58
2017-07-04T14:24:17.276Z,33.39
2017-07-04T14:26:49.698Z,31.48
2017-07-04T14:29:22.291Z,33.27
2017-07-04T14:31:54.683Z,33.71
2017-07-04T14:34:26.734Z,34.44
2017-07-04T14:36:59.077Z,34.06
2017-07-04T14:39:31.496Z,32.14
2017-07-04T14:42:04.009Z,34.25
2017-07-04T14:44:36.356Z,33.97
2017-07-04T14:47:08.803Z,32.44
2017-07-04T14:49:41.257Z,34.28
2017-07-04T14:52:13.802Z,33.76
2017-07-04T14:54:46.318Z,33.32
2017-07-04T14:57:18.677Z,34.89
2017-07-04T14:59:51.002Z,35.24
2017-07-04T15:02:23.505Z,32.15
2017-07-04T15:04:55.824Z,33.82
2017-07-04T15:07:29.231Z,33.17
2017-07-04T15:10:01.595Z,33.87
2017-07-04T15:12:34.092Z,32.87
2017-07-04T15:15:07.345Z,33.60
2017-07-04T15:17:39.963Z,34.79
2017-07-04T15:20:12.722Z,34.24
2017-07-04T15:22:44.787Z,34.65
2017-07-04T15:25:17.103Z,34.74
2017-07-04T15:27:49.489Z,34.94
2017-07-04T15:30:21.866Z,34.58
2017-07-04T15:32:54.350Z,33.51
2017-07-04T15:35:27.008Z,34.30
2017-07-04T15:37:59.057Z,34.93
2017-07-04T15:40:31.447Z,34.53
2017-07-04T15:43:03.744Z,35.86
2017-07-04T15:45:36.024Z,35.82
2017-07-04T15:48:08.461Z,35.08
2017-07-04T15:50:40.842Z,35.80
2017-07-04T15:53:13.274Z,36.25
2017-07-04T15:55:45.679Z,36.03
2017-07-04T15:58:18.081Z,36.67
2017-07-04T16:00:50.379Z,36.21
2017-07-04T16:03:23.706Z,36.14
2017-07-04T16:05:56.101Z,36.26
2017-07-04T16:08:28.622Z,36.23
2017-07-04T16:11:01.065Z,36.33
2017-07-04T16:13:34.793Z,36.66
2017-07-04T16:16:06.840Z,36.33
2017-07-04T16:18:39.231Z,35.68
2017-07-04T16:21:11.569Z,37.26
2017-07-04T16:23:44.176Z,36.86
2017-07-04T16:26:16.517Z,35.83
2017-07-04T16:28:48.814Z,37.39
2017-07-04T16:31:21.191Z,38.20
2017-07-04T16:33:53.582Z,38.41
2017-07-04T16:36:25.894Z,37.58
2017-07-04T16:38:58.308Z,37.67
2017-07-04T16:41:30.773Z,38.29
2017-07-04T16:44:03.280Z,39.22
2017-07-04T16:46:35.618Z,38.70
2017-07-04T16:49:08.034Z,38.29
2017-07-04T16:51:40.296Z,38.26
2017-07-04T16:54:13.673Z,38.46
2017-07-04T16:56:46.128Z,37.85
2017-07-04T16:59:19.531Z,37.92
2017-07-04T17:01:51.884Z,38.00
2017-07-04T17:04:24.199Z,38.22
2017-07-04T17:06:56.623Z,37.74
2017-07-04T17:09:28.972Z,37.67
2017-07-04T17:12:01.392Z,37.93
2017-07-04T17:14:33.910Z,38.18
2017-07-04T17:17:06.196Z,38.77
2017-07-04T17:19:38.652Z,38.58
2017-07-04T17:22:11.042Z,37.60
2017-07-04T17:24:43.572Z,37.14
2017-07-04T17:27:15.923Z,37.29
2017-07-04T17:29:48.445Z,38.26
2017-07-04T17:32:20.907Z,38.26
2017-07-04T17:34:53.301Z,38.50
2017-07-04T17:37:25.664Z,38.68
2017-07-04T17:39:59.159Z,38.99
2017-07-04T17:42:31.533Z,39.31
2017-07-04T17:45:04.834Z,38.93
2017-07-04T17:47:37.355Z,40.14
2017-07-04T17:50:09.684Z,39.87
2017-07-04T17:52:42.140Z,40.77
2017-07-04T17:55:14.589Z,39.83
2017-07-04T17:57:46.972Z,40.17
2017-07-04T18:00:19.873Z,40.88
2017-07-04T18:02:51.665Z,41.46
2017-07-04T18:05:24.253Z,41.86
2017-07-04T18:07:56.392Z,42.51
2017-07-04T18:10:28.768Z,43.19
2017-07-04T18:13:01.157Z,43.44
2017-07-04T18:15:33.693Z,44.05
2017-07-04T18:18:06.134Z,44.11
2017-07-04T18:20:38.580Z,44.52
2017-07-04T18:23:10.985Z,44.50
2017-07-04T18:25:43.390Z,44.69
2017-07-04T18:28:15.770Z,44.59
2017-07-04T18:30:48.166Z,44.30
2017-07-04T18:33:20.505Z,43.81
2017-07-04T18:35:53.601Z,43.68
2017-07-04T18:38:25.385Z,44.07
2017-07-04T18:40:57.837Z,44.12
2017-07-04T18:43:30.309Z,43.78
2017-07-04T18:46:03.457Z,44.21
2017-07-04T18:48:35.978Z,44.43
2017-07-04T18:51:08.509Z,44.98
2017-07-04T18:53:40.772Z,45.24
2017-07-04T18:56:13.624Z,45.55
2017-07-04T18:58:45.680Z,45.85
2017-07-04T19:01:18.208Z,46.59
2017-07-04T19:03:51.508Z,46.80
2017-07-04T19:06:24.122Z,47.15
2017-07-04T19:08:56.408Z,47.13
2017-07-04T19:11:28.960Z,47.76
2017-07-04T19:14:01.244Z,48.07
2017-07-04T19:16:33.659Z,48.34
2017-07-04T19:19:05.998Z,48.70
2017-07-04T19:21:39.394Z,49.35
2017-07-04T19:24:12.201Z,50.00
2017-07-04T19:26:44.213Z,50.42
2017-07-04T19:29:16.555Z,50.78
2017-07-04T19:31:49.000Z,51.40
2017-07-04T19:34:21.257Z,51.91
2017-07-04T19:36:53.757Z,52.10
2017-07-04T19:39:26.217Z,52.55
2017-07-04T19:41:58.704Z,52.82
2017-07-04T19:44:31.114Z,53.19
2017-07-04T19:47:04.347Z,53.51
2017-07-04T19:49:36.857Z,53.72
2017-07-04T19:52:09.470Z,53.77
2017-07-04T19:54:41.980Z,53.76
2017-07-04T19:57:14.482Z,53.89
2017-07-04T19:59:46.805Z,53.77
2017-07-04T20:02:19.133Z,53.34
2017-07-04T20:04:51.553Z,53.11
2017-07-04T20:07:23.953Z,53.29
2017-07-04T20:09:56.389Z,53.63
2017-07-04T20:12:28.911Z,53.58
2017-07-04T20:15:02.054Z,53.41
2017-07-04T20:17:37.298Z,53.95
2017-07-04T20:20:09.717Z,54.09
2017-07-04T20:22:42.117Z,54.42
2017-07-04T20:25:14.462Z,54.31
2017-07-04T20:27:46.800Z,54.49
2017-07-04T20:30:19.305Z,54.57
2017-07-04T20:32:51.826Z,54.57
2017-07-04T20:35:24.187Z,54.56
2017-07-04T20:37:56.640Z,54.88
2017-07-04T20:40:29.001Z,55.16
2017-07-04T20:43:01.308Z,55.43
2017-07-04T20:45:33.556Z,55.10
2017-07-04T20:48:06.141Z,55.10
2017-07-04T20:50:38.329Z,55.34
2017-07-04T20:53:10.798Z,55.40
2017-07-04T20:55:43.141Z,55.88
2017-07-04T20:58:15.486Z,55.68
2017-07-04T21:00:47.807Z,55.65
2017-07-04T21:03:20.281Z,55.35
2017-07-04T21:05:52.745Z,55.37
2017-07-04T21:08:25.538Z,55.80
2017-07-04T21:10:57.667Z,55.36
2017-07-04T21:13:30.003Z,56.07
2017-07-04T21:16:02.383Z,55.13
2017-07-04T21:18:34.650Z,55.99
2017-07-04T21:21:07.013Z,55.97
2017-07-04T21:23:39.274Z,56.07
2017-07-04T21:26:11.628Z,55.92
2017-07-04T21:28:44.490Z,56.12
2017-07-04T21:31:16.565Z,57.02
2017-07-04T21:33:48.976Z,56.92
2017-07-04T21:36:21.322Z,56.89
2017-07-04T21:38:54.076Z,57.60
2017-07-04T21:41:26.157Z,58.37
2017-07-04T21:43:58.993Z,58.94
2017-07-04T21:46:31.209Z,59.38
2017-07-04T21:49:03.261Z,59.79
2017-07-04T21:51:35.563Z,59.93
2017-07-04T21:54:07.866Z,60.97
2017-07-04T21:56:40.237Z,61.38
2017-07-04T21:59:12.813Z,61.89
2017-07-04T22:01:45.329Z,62.68
2017-07-04T22:04:17.719Z,63.30
2017-07-04T22:06:50.121Z,64.06
2017-07-04T22:09:22.638Z,64.69
2017-07-04T22:11:54.946Z,64.69
2017-07-04T22:14:27.372Z,64.83
2017-07-04T22:16:59.700Z,65.38
2017-07-04T22:19:32.885Z,66.22
2017-07-04T22:22:05.800Z,66.45
2017-07-04T22:24:37.897Z,66.03
2017-07-04T22:27:10.252Z,66.76
2017-07-04T22:29:42.733Z,66.55
2017-07-04T22:32:15.117Z,67.03
2017-07-04T22:34:47.593Z,67.42
2017-07-04T22:37:20.136Z,67.51
2017-07-04T22:39:52.669Z,67.51
2017-07-04T22:42:24.993Z,67.47
2017-07-04T22:44:57.393Z,67.23
2017-07-04T22:47:29.777Z,68.21
2017-07-04T22:50:02.136Z,68.26
2017-07-04T22:52:34.506Z,67.93
2017-07-04T22:55:06.937Z,68.02
2017-07-04T22:57:39.257Z,68.79
2017-07-04T23:00:11.682Z,68.87
2017-07-04T23:02:43.985Z,68.21
2017-07-04T23:05:16.493Z,68.37
2017-07-04T23:07:48.937Z,68.97
2017-07-04T23:10:21.437Z,68.95
2017-07-04T23:12:53.756Z,69.09
2017-07-04T23:15:26.281Z,69.17
2017-07-04T23:17:58.544Z,69.96
2017-07-04T23:20:30.948Z,69.99
2017-07-04T23:23:03.377Z,70.62
2017-07-04T23:25:35.836Z,71.01
2017-07-04T23:28:07.944Z,70.72
2017-07-04T23:30:40.349Z,70.55
2017-07-04T23:33:12.720Z,71.36
2017-07-04T23:35:44.982Z,71.22
2017-07-04T23:38:17.530Z,71.08
2017-07-04T23:40:49.905Z,71.19
2017-07-04T23:43:22.373Z,70.79
2017-07-04T23:45:54.752Z,71.76
2017-07-04T23:48:27.096Z,72.26
2017-07-04T23:50:59.602Z,72.59
2017-07-04T23:53:31.964Z,72.47
2017-07-04T23:56:04.541Z,72.59
2017-07-04T23:58:36.795Z,72.87
